Time;durP1;ratioP1;P1;durP2;ratioP2;P2;SDS_P1;SDS_P2;PMS_P1;PMS_P2;Temp;Humidity;BMP_temperature;BMP_pressure;BME280_temperature;BME280_humidity;BME280_pressure;Samples;Min_cycle;Max_cycle;Signal;HPM_P1;HPM_P2
2020/12/26 00:02:21;;;;;;;3.05;2.75;;;17.10;29.50;;;;;;5113868;28;20172;-60
2020/12/26 00:04:47;;;;;;;3.05;2.75;;;17.10;29.50;;;;;;5114151;28;20149;-60
2020/12/26 00:07:13;;;;;;;3.97;3.17;;;17.10;29.50;;;;;;5113785;28;20298;-59
2020/12/26 00:09:38;;;;;;;5.70;3.40;;;17.10;29.50;;;;;;5114144;28;20625;-59
2020/12/26 00:12:04;;;;;;;3.30;2.87;;;17.10;29.50;;;;;;5113858;28;20185;-60
2020/12/26 00:14:30;;;;;;;3.47;3.17;;;17.10;29.50;;;;;;5114026;28;20504;-60
2020/12/26 00:16:57;;;;;;;3.23;2.93;;;17.10;29.50;;;;;;5113955;28;20616;-60
2020/12/26 00:19:23;;;;;;;3.50;3.15;;;17.10;29.50;;;;;;5095933;28;20154;-60
2020/12/26 00:21:50;;;;;;;2.95;2.65;;;17.10;29.50;;;;;;5114118;28;20161;-60
2020/12/26 00:24:16;;;;;;;3.08;2.88;;;17.10;29.50;;;;;;5113692;28;20236;-60
2020/12/26 00:26:42;;;;;;;3.57;3.00;;;17.10;29.50;;;;;;5113919;28;20595;-60
2020/12/26 00:29:07;;;;;;;3.97;2.87;;;17.10;29.50;;;;;;5113836;28;20520;-60
2020/12/26 00:31:33;;;;;;;3.43;3.00;;;17.10;29.50;;;;;;5116962;28;20432;-60
2020/12/26 00:33:59;;;;;;;3.23;2.63;;;17.10;29.40;;;;;;5117816;28;20154;-59
2020/12/26 00:36:24;;;;;;;3.07;2.77;;;17.10;29.50;;;;;;5117846;28;20149;-60
2020/12/26 00:38:50;;;;;;;3.40;3.00;;;17.10;29.40;;;;;;5117452;28;20154;-60
2020/12/26 00:41:16;;;;;;;3.33;2.83;;;17.10;29.50;;;;;;5117830;28;20153;-60
2020/12/26 00:43:42;;;;;;;3.70;3.40;;;17.10;29.40;;;;;;5117866;28;20153;-61
2020/12/26 00:46:11;;;;;;;2.83;2.63;;;17.10;29.50;;;;;;5117660;28;20407;-60
2020/12/26 00:48:37;;;;;;;3.55;3.25;;;17.10;29.50;;;;;;5117835;28;20150;-59
2020/12/26 00:51:02;;;;;;;3.03;2.70;;;17.10;29.40;;;;;;5117750;28;20181;-59
2020/12/26 00:53:29;;;;;;;3.30;2.77;;;17.10;29.40;;;;;;5116850;28;20881;-60
2020/12/26 00:55:55;;;;;;;2.80;2.53;;;17.10;29.50;;;;;;5116159;28;20161;-60
2020/12/26 00:58:20;;;;;;;3.33;2.70;;;17.10;29.40;;;;;;5116964;28;20657;-59
2020/12/26 01:00:46;;;;;;;3.67;3.13;;;17.10;29.50;;;;;;5117446;28;20395;-60
2020/12/26 01:03:12;;;;;;;3.40;3.00;;;17.10;29.50;;;;;;5117270;28;20145;-60
2020/12/26 01:05:37;;;;;;;3.23;2.80;;;17.10;29.50;;;;;;5117389;28;20157;-59
2020/12/26 01:08:03;;;;;;;3.33;3.03;;;17.10;29.50;;;;;;5098585;28;20189;-60
2020/12/26 01:10:28;;;;;;;4.33;3.30;;;17.10;29.50;;;;;;5116994;28;20165;-60
2020/12/26 01:12:54;;;;;;;2.80;2.60;;;17.10;29.50;;;;;;5117164;28;20279;-60
2020/12/26 01:15:20;;;;;;;3.27;2.97;;;17.10;29.50;;;;;;5117153;28;20157;-59
2020/12/26 01:17:45;;;;;;;4.03;3.10;;;17.00;29.50;;;;;;5117114;28;20172;-59
2020/12/26 01:20:11;;;;;;;3.93;3.57;;;17.00;29.50;;;;;;5117427;28;20244;-59
2020/12/26 01:22:37;;;;;;;3.03;2.83;;;17.00;29.50;;;;;;5098345;28;20188;-60
2020/12/26 01:25:04;;;;;;;3.20;2.90;;;17.00;29.40;;;;;;5116959;28;20168;-60
2020/12/26 01:27:30;;;;;;;3.30;3.00;;;17.00;29.40;;;;;;5098826;28;20596;-60
2020/12/26 01:29:55;;;;;;;5.07;3.30;;;17.00;29.40;;;;;;5117269;28;20192;-60
2020/12/26 01:32:27;;;;;;;3.20;3.00;;;17.00;29.40;;;;;;5116675;28;20200;-60
2020/12/26 01:34:54;;;;;;;3.30;3.00;;;17.10;29.50;;;;;;5098939;28;20616;-61
2020/12/26 01:37:23;;;;;;;3.03;2.75;;;17.00;29.40;;;;;;5116332;28;20260;-60
2020/12/26 01:39:48;;;;;;;2.90;2.60;;;17.00;29.40;;;;;;5116709;28;20245;-61
2020/12/26 01:42:14;;;;;;;2.37;2.17;;;17.00;29.40;;;;;;5115736;28;20193;-60
2020/12/26 01:44:43;;;;;;;3.50;3.20;;;17.00;30.00;;;;;;5116574;28;20623;-60
2020/12/26 01:47:09;;;;;;;3.65;3.13;;;17.00;29.50;;;;;;5098020;28;20218;-61
2020/12/26 01:49:35;;;;;;;3.05;2.80;;;17.00;29.50;;;;;;5116546;28;20240;-60
2020/12/26 01:52:01;;;;;;;3.37;3.07;;;17.00;29.50;;;;;;5116136;28;20267;-60
2020/12/26 01:54:28;;;;;;;3.20;2.88;;;17.00;29.50;;;;;;5116352;28;20458;-60
2020/12/26 01:56:56;;;;;;;2.75;2.45;;;17.00;29.50;;;;;;5116059;28;20648;-60
2020/12/26 01:59:21;;;;;;;3.95;3.55;;;17.00;29.50;;;;;;5116221;28;20157;-60
2020/12/26 02:01:49;;;;;;;3.37;3.07;;;17.00;29.50;;;;;;5116377;28;20643;-60
2020/12/26 02:04:15;;;;;;;3.03;2.83;;;17.00;29.50;;;;;;5115999;28;20146;-61
2020/12/26 02:06:48;;;;;;;4.97;3.07;;;17.00;29.50;;;;;;5116273;28;20240;-60
2020/12/26 02:09:14;;;;;;;3.22;2.60;;;17.00;29.50;;;;;;5097930;28;20232;-60
2020/12/26 02:11:43;;;;;;;4.20;2.38;;;17.00;29.60;;;;;;5116166;28;20181;-61
2020/12/26 02:14:11;;;;;;;2.97;2.78;;;17.00;29.50;;;;;;5115908;28;20177;-60
2020/12/26 02:16:45;;;;;;;2.70;2.50;;;17.00;29.50;;;;;;5097773;28;20165;-60
2020/12/26 02:19:12;;;;;;;2.60;2.40;;;17.00;29.50;;;;;;5097697;28;20164;-61
2020/12/26 02:21:41;;;;;;;3.00;2.78;;;17.00;29.50;;;;;;5115785;28;20165;-60
2020/12/26 02:24:08;;;;;;;2.75;2.55;;;17.00;29.50;;;;;;5097216;28;20244;-61
2020/12/26 02:26:37;;;;;;;3.47;2.72;;;17.00;29.50;;;;;;5116146;28;20156;-60
2020/12/26 02:29:04;;;;;;;3.28;2.95;;;17.00;29.50;;;;;;5097946;28;20226;-60
2020/12/26 02:31:30;;;;;;;3.30;3.00;;;17.00;29.50;;;;;;5115761;28;20655;-59
2020/12/26 02:33:55;;;;;;;3.57;2.60;;;17.00;29.50;;;;;;5115742;28;20149;-60
2020/12/26 02:36:21;;;;;;;3.07;2.53;;;17.00;29.50;;;;;;5115549;28;20399;-60
2020/12/26 02:38:48;;;;;;;2.80;2.60;;;17.00;29.50;;;;;;5114975;28;20160;-59
2020/12/26 02:41:14;;;;;;;4.10;2.70;;;17.00;29.50;;;;;;5115583;28;20172;-60
2020/12/26 02:43:39;;;;;;;2.58;2.38;;;17.00;29.50;;;;;;5115518;28;20149;-59
2020/12/26 02:46:05;;;;;;;2.77;2.53;;;17.00;29.50;;;;;;5115347;28;20230;-60
2020/12/26 02:48:31;;;;;;;3.67;3.22;;;17.00;29.50;;;;;;5115585;28;20909;-59
2020/12/26 02:50:57;;;;;;;5.00;3.00;;;17.00;29.50;;;;;;5115068;28;20161;-59
2020/12/26 02:53:23;;;;;;;3.03;2.72;;;17.00;29.50;;;;;;5113791;28;20628;-61
2020/12/26 02:55:49;;;;;;;3.55;2.47;;;17.00;29.50;;;;;;5114931;28;20160;-59
2020/12/26 02:58:15;;;;;;;3.33;2.60;;;17.00;29.50;;;;;;5114996;28;20168;-59
2020/12/26 03:00:41;;;;;;;2.87;2.67;;;17.00;30.00;;;;;;5115028;28;20539;-60
2020/12/26 03:03:08;;;;;;;4.53;3.13;;;17.00;29.50;;;;;;5115028;28;20203;-59
2020/12/26 03:05:33;;;;;;;4.97;2.80;;;17.00;29.50;;;;;;5114912;28;20616;-60
2020/12/26 03:07:59;;;;;;;2.90;2.70;;;17.00;29.50;;;;;;5114550;28;20172;-60
2020/12/26 03:10:25;;;;;;;3.07;2.80;;;17.00;29.50;;;;;;5115011;28;20157;-59
2020/12/26 03:12:50;;;;;;;2.80;2.60;;;17.00;29.50;;;;;;5115060;28;20640;-60
2020/12/26 03:15:16;;;;;;;3.43;2.90;;;17.00;29.50;;;;;;5114976;28;20168;-60
2020/12/26 03:17:42;;;;;;;2.70;2.50;;;17.00;29.50;;;;;;5096674;28;20145;-59
2020/12/26 03:20:08;;;;;;;3.10;2.67;;;17.00;29.50;;;;;;5114686;28;20519;-59
2020/12/26 03:22:33;;;;;;;3.08;2.30;;;17.00;29.50;;;;;;5130527;27;20634;-59
2020/12/26 03:24:59;;;;;;;4.10;2.90;;;17.00;29.50;;;;;;5115061;28;20157;-60
2020/12/26 03:27:25;;;;;;;2.70;2.50;;;17.00;29.50;;;;;;5114723;28;20210;-59
2020/12/26 03:29:52;;;;;;;2.90;2.70;;;17.00;29.40;;;;;;5130398;27;20407;-59
2020/12/26 03:32:19;;;;;;;2.80;2.60;;;17.00;29.40;;;;;;5114388;28;20188;-59
2020/12/26 03:34:45;;;;;;;3.28;2.65;;;17.00;29.40;;;;;;5114435;28;20160;-59
2020/12/26 03:37:10;;;;;;;2.67;2.47;;;17.00;29.40;;;;;;5113827;28;20169;-59
2020/12/26 03:39:37;;;;;;;3.13;2.93;;;17.00;29.50;;;;;;5114659;28;20164;-59
2020/12/26 03:42:08;;;;;;;2.45;2.25;;;17.00;29.50;;;;;;5114544;28;20154;-59
2020/12/26 03:44:34;;;;;;;2.95;2.65;;;17.00;29.50;;;;;;5114449;28;20264;-60
2020/12/26 03:47:00;;;;;;;2.60;2.40;;;17.00;29.50;;;;;;5114545;28;20164;-59
2020/12/26 03:49:27;;;;;;;2.83;2.63;;;17.00;29.50;;;;;;5114325;28;20478;-60
2020/12/26 03:51:53;;;;;;;2.80;2.53;;;17.00;29.50;;;;;;5114125;28;20198;-59
2020/12/26 03:54:22;;;;;;;2.50;2.28;;;17.00;29.50;;;;;;5114260;28;20212;-59
2020/12/26 03:56:47;;;;;;;2.65;2.45;;;17.00;29.50;;;;;;5114256;28;20172;-59
2020/12/26 03:59:13;;;;;;;2.50;2.20;;;16.90;29.40;;;;;;5113946;28;20218;-59
2020/12/26 04:01:39;;;;;;;2.60;2.40;;;17.00;29.50;;;;;;5096454;28;20168;-59
2020/12/26 04:04:08;;;;;;;2.63;2.42;;;16.90;29.40;;;;;;5113902;28;20214;-59
2020/12/26 04:06:34;;;;;;;3.05;2.50;;;17.00;29.50;;;;;;5095517;28;20669;-59
2020/12/26 04:08:59;;;;;;;3.27;2.80;;;16.90;29.40;;;;;;5113623;28;20157;-60
2020/12/26 04:11:25;;;;;;;5.63;3.67;;;16.90;29.40;;;;;;5113900;28;20230;-61
2020/12/26 04:13:51;;;;;;;2.75;2.55;;;17.00;29.50;;;;;;5114252;28;20149;-61
2020/12/26 04:16:17;;;;;;;2.72;2.53;;;16.90;29.40;;;;;;5095844;28;20176;-60
2020/12/26 04:18:43;;;;;;;2.20;2.00;;;16.90;29.50;;;;;;5113921;28;20172;-60
2020/12/26 04:21:09;;;;;;;3.33;2.67;;;16.90;29.50;;;;;;5095743;28;20852;-60
2020/12/26 04:23:35;;;;;;;2.33;2.17;;;16.90;29.40;;;;;;5113708;28;20165;-60
2020/12/26 04:26:01;;;;;;;2.80;2.20;;;16.90;29.40;;;;;;5114031;28;20161;-60
2020/12/26 04:28:27;;;;;;;2.40;2.30;;;16.90;29.40;;;;;;5113887;28;20374;-60
2020/12/26 04:30:53;;;;;;;2.53;2.30;;;16.90;29.50;;;;;;5114091;28;20150;-60
2020/12/26 04:33:19;;;;;;;2.85;2.55;;;16.90;30.00;;;;;;5113774;28;20827;-60
2020/12/26 04:35:45;;;;;;;3.65;3.03;;;16.90;29.40;;;;;;5114027;28;20199;-60
2020/12/26 04:38:11;;;;;;;2.40;2.20;;;16.90;29.40;;;;;;5113532;28;20149;-60
2020/12/26 04:40:37;;;;;;;3.10;2.70;;;16.90;29.40;;;;;;5095799;28;20179;-60
2020/12/26 04:43:05;;;;;;;3.22;2.80;;;16.90;29.40;;;;;;5113770;28;20465;-60
2020/12/26 04:45:32;;;;;;;2.67;2.47;;;16.90;29.40;;;;;;5113893;28;20428;-60
2020/12/26 04:48:07;;;;;;;2.63;2.40;;;16.90;29.50;;;;;;5113602;28;20177;-60
2020/12/26 04:50:34;;;;;;;2.65;2.40;;;16.90;29.40;;;;;;5113682;28;20172;-59
2020/12/26 04:53:05;;;;;;;3.55;3.10;;;16.90;29.40;;;;;;5112989;28;20679;-59
2020/12/26 04:55:33;;;;;;;3.80;2.35;;;16.90;29.40;;;;;;5113750;28;20157;-59
2020/12/26 04:58:06;;;;;;;2.47;2.28;;;17.00;29.50;;;;;;5095227;28;20180;-60
2020/12/26 05:00:35;;;;;;;2.58;2.38;;;16.90;29.40;;;;;;5113737;28;20153;-61
2020/12/26 05:03:08;;;;;;;2.35;2.15;;;16.90;29.40;;;;;;5113202;28;20161;-60
2020/12/26 05:05:34;;;;;;;2.58;2.15;;;16.90;29.40;;;;;;5113516;28;20161;-60
2020/12/26 05:08:12;;;;;;;2.65;2.45;;;16.90;29.40;;;;;;5094897;28;20161;-60
2020/12/26 05:10:39;;;;;;;2.42;2.22;;;16.90;29.40;;;;;;5095509;28;20177;-61
2020/12/26 05:13:07;;;;;;;2.63;2.42;;;16.90;29.40;;;;;;5113411;28;20521;-61
2020/12/26 05:15:34;;;;;;;2.95;2.65;;;16.90;29.40;;;;;;5095360;28;20231;-61
2020/12/26 05:18:00;;;;;;;2.70;2.47;;;16.90;29.40;;;;;;5115577;28;20158;-61
2020/12/26 05:20:27;;;;;;;2.40;2.20;;;16.90;29.40;;;;;;5117176;28;20266;-61
2020/12/26 05:23:15;;;;;;;2.22;1.85;;;16.90;29.40;;;;;;5098593;28;20866;-59
2020/12/26 05:25:46;;;;;;;2.90;2.60;;;16.90;29.40;;;;;;5116977;28;20162;-59
2020/12/26 05:28:17;;;;;;;2.55;2.35;;;16.90;29.40;;;;;;5117130;28;20157;-60
2020/12/26 05:30:45;;;;;;;2.95;2.75;;;17.00;29.50;;;;;;5099297;28;20157;-60
2020/12/26 05:33:14;;;;;;;2.50;2.28;;;16.90;29.40;;;;;;5116727;28;20294;-60
2020/12/26 05:35:47;;;;;;;2.65;2.42;;;16.90;29.40;;;;;;5116922;28;20157;-60
2020/12/26 05:38:33;;;;;;;1.90;1.80;;;16.90;29.40;;;;;;5116167;28;20242;-60
2020/12/26 05:41:00;;;;;;;2.38;2.17;;;16.90;29.40;;;;;;5116440;28;20188;-60
2020/12/26 05:43:31;;;;;;;2.45;2.20;;;16.90;29.40;;;;;;5116696;28;20148;-60
2020/12/26 05:45:57;;;;;;;2.45;2.08;;;16.90;29.40;;;;;;5116676;28;20156;-60
2020/12/26 05:48:25;;;;;;;2.53;2.33;;;16.90;29.40;;;;;;5116596;28;20177;-60
2020/12/26 05:50:58;;;;;;;2.60;2.40;;;16.90;29.40;;;;;;5116731;28;20162;-60
2020/12/26 05:53:25;;;;;;;2.97;2.67;;;16.90;29.40;;;;;;5115702;28;20209;-60
2020/12/26 05:55:52;;;;;;;2.45;2.22;;;16.90;29.40;;;;;;5116473;28;20157;-59
2020/12/26 05:58:25;;;;;;;3.10;2.78;;;16.90;29.40;;;;;;5098175;28;20199;-60
2020/12/26 06:00:51;;;;;;;2.42;2.22;;;16.90;29.80;;;;;;5116249;28;20176;-60
2020/12/26 06:03:26;;;;;;;2.95;2.70;;;16.90;29.40;;;;;;5116209;28;20674;-60
2020/12/26 06:05:54;;;;;;;2.92;2.72;;;16.90;29.40;;;;;;5116756;28;20180;-60
2020/12/26 06:08:21;;;;;;;2.60;1.90;;;16.90;29.40;;;;;;5097819;28;20163;-60
2020/12/26 06:10:55;;;;;;;2.90;2.60;;;16.90;29.40;;;;;;5097971;28;20169;-60
2020/12/26 06:13:26;;;;;;;3.20;2.88;;;16.90;29.40;;;;;;5115922;28;20281;-61
2020/12/26 06:16:09;;;;;;;2.55;2.35;;;16.90;29.40;;;;;;5116049;28;20217;-61
2020/12/26 06:18:40;;;;;;;2.40;2.20;;;16.90;29.40;;;;;;5116235;28;20620;-61
2020/12/26 06:21:07;;;;;;;2.47;2.28;;;16.90;29.40;;;;;;5116036;28;20154;-60
2020/12/26 06:23:38;;;;;;;2.70;2.50;;;16.90;29.40;;;;;;5096966;28;20177;-61
2020/12/26 06:26:04;;;;;;;2.17;2.00;;;16.90;29.40;;;;;;5116153;28;20203;-61
2020/12/26 06:28:31;;;;;;;2.88;2.67;;;16.90;29.90;;;;;;5115225;28;20145;-61
2020/12/26 06:31:05;;;;;;;3.20;2.90;;;16.90;29.40;;;;;;5115672;28;20153;-61
2020/12/26 06:33:39;;;;;;;2.40;2.20;;;16.90;29.40;;;;;;5115448;28;20185;-61
2020/12/26 06:36:06;;;;;;;2.20;2.00;;;16.90;29.40;;;;;;5116164;28;20153;-60
2020/12/26 06:38:32;;;;;;;2.80;2.30;;;16.90;29.40;;;;;;5115029;28;20664;-60
2020/12/26 06:41:13;;;;;;;2.30;2.08;;;16.90;29.40;;;;;;5115537;28;20238;-60
2020/12/26 06:43:45;;;;;;;2.38;2.13;;;16.90;29.40;;;;;;5115760;28;20164;-61
2020/12/26 06:46:13;;;;;;;3.03;2.72;;;16.90;29.40;;;;;;5115573;28;20226;-61
2020/12/26 06:48:40;;;;;;;3.53;2.83;;;16.80;29.40;;;;;;5115426;28;20156;-60
2020/12/26 06:51:24;;;;;;;2.28;2.03;;;16.90;29.50;;;;;;5115296;28;20169;-61
2020/12/26 06:53:50;;;;;;;2.55;2.25;;;16.80;29.40;;;;;;5114435;28;20227;-60
2020/12/26 06:56:34;;;;;;;2.67;2.47;;;16.80;29.40;;;;;;5115318;28;20165;-60
2020/12/26 06:59:08;;;;;;;2.30;2.10;;;16.80;29.40;;;;;;5115158;28;20145;-61
2020/12/26 07:01:35;;;;;;;2.20;2.00;;;16.90;29.50;;;;;;5115323;28;20164;-59
2020/12/26 07:04:07;;;;;;;2.92;2.72;;;16.80;29.40;;;;;;5115254;28;20146;-60
2020/12/26 07:06:43;;;;;;;2.42;2.22;;;16.80;29.40;;;;;;5096830;28;20280;-60
2020/12/26 07:09:10;;;;;;;2.80;2.50;;;16.80;30.00;;;;;;5114658;28;20215;-60
2020/12/26 07:12:03;;;;;;;2.40;2.15;;;16.80;29.40;;;;;;5114846;28;20641;-60
2020/12/26 07:14:28;;;;;;;2.85;2.65;;;16.90;29.50;;;;;;5111694;28;20257;-60
2020/12/26 07:16:55;;;;;;;2.40;2.20;;;16.80;29.40;;;;;;5114712;28;20177;-60
2020/12/26 07:19:25;;;;;;;4.55;2.70;;;16.80;29.30;;;;;;5097074;28;20240;-60
2020/12/26 07:21:55;;;;;;;2.90;2.70;;;16.90;29.40;;;;;;5114824;28;20149;-60
2020/12/26 07:24:42;;;;;;;2.72;2.40;;;16.90;29.40;;;;;;5114636;28;20161;-60
2020/12/26 07:27:30;;;;;;;2.85;2.65;;;16.90;29.40;;;;;;5114624;28;20149;-60
2020/12/26 07:30:01;;;;;;;3.25;2.70;;;16.90;29.40;;;;;;5097022;28;20165;-59
2020/12/26 07:32:38;;;;;;;2.25;2.13;;;16.90;29.30;;;;;;5114502;28;20234;-60
2020/12/26 07:35:19;;;;;;;2.47;2.28;;;16.90;29.30;;;;;;5096372;28;20169;-60
2020/12/26 07:38:06;;;;;;;1.92;1.70;;;16.90;29.30;;;;;;5113941;28;20157;-60
2020/12/26 07:40:34;;;;;;;3.05;2.40;;;16.90;29.20;;;;;;5113316;28;20173;-60
2020/12/26 07:43:04;;;;;;;2.28;2.00;;;16.90;29.20;;;;;;5114399;28;20161;-61
2020/12/26 07:45:31;;;;;;;2.22;2.03;;;16.90;29.20;;;;;;5114469;28;20149;-60
2020/12/26 07:47:59;;;;;;;2.35;2.15;;;16.90;29.20;;;;;;5114260;28;20181;-61
2020/12/26 07:50:30;;;;;;;2.72;2.53;;;16.90;29.20;;;;;;5114300;28;20612;-61
2020/12/26 07:52:58;;;;;;;2.30;2.13;;;16.90;29.20;;;;;;5113567;28;20303;-61
2020/12/26 07:55:26;;;;;;;2.45;2.25;;;16.90;29.20;;;;;;5114190;28;20232;-60
2020/12/26 07:58:00;;;;;;;2.03;1.88;;;17.00;29.20;;;;;;5114047;28;20197;-61
2020/12/26 08:00:27;;;;;;;2.10;2.00;;;17.00;29.10;;;;;;5114075;28;20164;-60
2020/12/26 08:02:55;;;;;;;2.15;1.95;;;17.00;29.10;;;;;;5114266;28;20161;-60
2020/12/26 08:05:27;;;;;;;2.40;2.30;;;17.00;29.00;;;;;;5114147;28;20165;-60
2020/12/26 08:07:53;;;;;;;2.30;2.10;;;17.00;29.00;;;;;;5113997;28;20180;-60
2020/12/26 08:10:19;;;;;;;2.47;2.17;;;17.00;29.00;;;;;;5114027;28;20681;-60
2020/12/26 08:12:50;;;;;;;1.90;1.80;;;17.00;28.90;;;;;;5113996;28;20191;-60
2020/12/26 08:15:28;;;;;;;2.25;2.15;;;17.10;29.00;;;;;;5114300;28;20153;-60
2020/12/26 08:17:59;;;;;;;3.10;2.10;;;17.10;28.90;;;;;;5113848;28;20604;-61
2020/12/26 08:20:26;;;;;;;2.10;2.00;;;17.10;28.90;;;;;;5114061;28;20153;-60
2020/12/26 08:22:53;;;;;;;2.42;1.98;;;17.10;28.80;;;;;;5095565;28;20194;-60
2020/12/26 08:25:20;;;;;;;2.88;2.63;;;17.10;29.30;;;;;;5113805;28;20633;-61
2020/12/26 08:27:47;;;;;;;2.42;2.15;;;17.10;28.70;;;;;;5114136;28;20165;-60
2020/12/26 08:30:19;;;;;;;1.90;1.70;;;17.10;28.70;;;;;;5095895;28;20256;-60
2020/12/26 08:33:07;;;;;;;1.88;1.77;;;17.10;28.70;;;;;;5113869;28;20181;-61
2020/12/26 08:35:35;;;;;;;2.05;1.85;;;17.20;28.70;;;;;;5113960;28;20160;-61
2020/12/26 08:38:08;;;;;;;2.17;2.08;;;17.20;28.70;;;;;;5113637;28;20149;-60
2020/12/26 08:40:39;;;;;;;2.10;1.88;;;17.20;29.20;;;;;;5113944;28;20160;-60
2020/12/26 08:43:12;;;;;;;2.40;2.20;;;17.20;28.70;;;;;;5113982;28;20510;-61
2020/12/26 08:45:38;;;;;;;3.25;2.95;;;17.20;28.60;;;;;;5114079;28;20173;-61
2020/12/26 08:48:42;;;;;;;2.50;2.30;;;17.20;28.60;;;;;;5113648;28;20504;-61
2020/12/26 08:51:16;;;;;;;2.30;2.10;;;17.20;28.60;;;;;;5031706;28;20245;-61
2020/12/26 08:53:44;;;;;;;2.20;1.88;;;17.20;28.50;;;;;;5106628;28;20216;-61
2020/12/26 08:56:30;;;;;;;2.67;2.47;;;17.30;28.50;;;;;;5117457;28;20180;-62
2020/12/26 08:58:55;;;;;;;2.22;2.03;;;17.30;28.50;;;;;;5117422;28;20152;-61
2020/12/26 09:01:21;;;;;;;2.40;2.20;;;17.30;28.40;;;;;;5117308;28;20153;-60
2020/12/26 09:03:49;;;;;;;2.17;2.00;;;17.30;28.40;;;;;;5117411;28;20183;-61
2020/12/26 09:06:15;;;;;;;2.40;2.20;;;17.30;28.80;;;;;;5117453;28;20628;-61
2020/12/26 09:08:41;;;;;;;2.30;2.00;;;17.30;28.30;;;;;;5117057;28;20158;-60
2020/12/26 09:11:10;;;;;;;2.65;2.20;;;17.40;28.30;;;;;;5133231;27;20168;-61
2020/12/26 09:13:39;;;;;;;2.30;2.10;;;17.40;28.20;;;;;;5117368;28;20194;-60
2020/12/26 09:16:09;;;;;;;3.15;2.58;;;17.40;28.20;;;;;;5098943;28;20165;-60
2020/12/26 09:18:45;;;;;;;2.17;1.80;;;17.40;28.20;;;;;;5117431;28;20630;-60
2020/12/26 09:21:23;;;;;;;2.10;2.00;;;17.40;28.00;;;;;;5117262;28;20178;-60
2020/12/26 09:23:50;;;;;;;2.33;2.13;;;17.50;28.10;;;;;;5116425;28;20595;-60
2020/12/26 09:26:36;;;;;;;3.30;2.67;;;17.50;28.00;;;;;;5117093;28;20169;-60
2020/12/26 09:29:03;;;;;;;2.85;2.65;;;17.50;27.90;;;;;;5116958;28;20171;-61
2020/12/26 09:31:39;;;;;;;2.50;2.30;;;17.50;27.80;;;;;;5116791;28;20308;-62
2020/12/26 09:34:34;;;;;;;2.63;2.42;;;17.50;27.80;;;;;;5116733;28;20157;-61
2020/12/26 09:37:10;;;;;;;2.60;2.40;;;17.50;27.80;;;;;;5096179;28;20200;-61
2020/12/26 09:39:37;;;;;;;2.45;2.25;;;17.50;27.90;;;;;;5117002;28;20157;-61
2020/12/26 09:42:04;;;;;;;2.85;2.65;;;17.50;27.90;;;;;;5116799;28;20153;-62
2020/12/26 09:44:29;;;;;;;3.40;1.92;;;17.50;27.90;;;;;;5116555;28;20145;-61
2020/12/26 09:47:00;;;;;;;2.70;2.10;;;17.50;27.90;;;;;;5098458;28;20553;-58
2020/12/26 09:49:25;;;;;;;2.10;1.95;;;17.50;27.90;;;;;;5116744;28;20154;-60
2020/12/26 09:51:51;;;;;;;2.73;2.20;;;17.50;27.80;;;;;;5116178;28;20310;-60
2020/12/26 09:54:17;;;;;;;2.73;2.00;;;17.50;27.80;;;;;;5115924;28;20458;-61
2020/12/26 09:56:43;;;;;;;1.60;1.50;;;17.60;27.80;;;;;;5098232;28;20197;-60
2020/12/26 09:59:08;;;;;;;2.10;1.90;;;17.60;27.70;;;;;;5116479;28;20168;-60
2020/12/26 10:01:39;;;;;;;2.70;2.30;;;16.50;26.90;;;;;;5116359;28;20165;-61
2020/12/26 10:04:04;;;;;;;2.30;2.10;;;17.60;27.60;;;;;;5115670;28;20153;-61
2020/12/26 10:06:30;;;;;;;2.90;2.33;;;17.60;27.60;;;;;;5116050;28;20153;-61
2020/12/26 10:08:56;;;;;;;2.40;2.20;;;17.70;27.60;;;;;;5115769;28;20399;-61
2020/12/26 10:11:21;;;;;;;2.43;2.23;;;17.70;27.50;;;;;;5116037;28;20168;-59
2020/12/26 10:13:47;;;;;;;1.93;1.70;;;17.70;27.50;;;;;;5115918;28;20157;-59
2020/12/26 10:16:17;;;;;;;2.50;2.00;;;17.70;27.50;;;;;;5116302;28;20248;-60
2020/12/26 10:18:43;;;;;;;3.20;2.42;;;17.80;27.50;;;;;;5116456;28;20240;-60
2020/12/26 10:21:09;;;;;;;2.45;2.25;;;17.80;27.40;;;;;;5115930;28;20162;-59
2020/12/26 10:23:34;;;;;;;2.00;1.90;;;17.80;27.40;;;;;;5115354;28;20192;-59
2020/12/26 10:26:04;;;;;;;3.97;2.37;;;17.80;27.30;;;;;;5115956;28;20194;-59
2020/12/26 10:28:30;;;;;;;2.22;2.03;;;17.80;27.30;;;;;;5115825;28;20150;-59
2020/12/26 10:30:56;;;;;;;2.43;2.00;;;17.90;27.30;;;;;;5116071;28;20623;-60
2020/12/26 10:33:21;;;;;;;2.80;2.50;;;17.80;27.20;;;;;;5115711;28;20442;-60
2020/12/26 10:35:47;;;;;;;2.77;2.30;;;17.90;27.10;;;;;;5115411;28;20545;-61
2020/12/26 10:38:13;;;;;;;2.03;1.83;;;17.90;27.10;;;;;;5114998;28;20157;-61
2020/12/26 10:40:38;;;;;;;3.07;2.63;;;17.90;27.00;;;;;;5097482;28;20158;-61
2020/12/26 10:43:04;;;;;;;2.50;2.30;;;17.90;26.90;;;;;;5115403;28;20157;-60
2020/12/26 10:45:29;;;;;;;3.13;2.33;;;17.90;26.80;;;;;;5115371;28;20165;-61
2020/12/26 10:47:55;;;;;;;2.90;2.10;;;18.00;26.80;;;;;;5115571;28;20504;-60
2020/12/26 10:50:21;;;;;;;3.23;2.43;;;18.00;26.70;;;;;;5115360;28;20161;-61
2020/12/26 10:52:46;;;;;;;2.20;2.00;;;18.00;26.70;;;;;;5114480;28;20679;-60
2020/12/26 10:55:14;;;;;;;2.03;1.80;;;18.10;26.80;;;;;;5115333;28;20200;-61
2020/12/26 10:57:45;;;;;;;2.50;2.30;;;18.10;26.80;;;;;;5115072;28;20165;-60
2020/12/26 11:00:11;;;;;;;2.15;1.95;;;18.10;26.80;;;;;;5115197;28;20157;-60
2020/12/26 11:02:37;;;;;;;2.10;2.00;;;18.20;26.90;;;;;;5115323;28;20604;-61
2020/12/26 11:05:05;;;;;;;2.40;2.20;;;18.20;26.80;;;;;;5115190;28;20183;-60
2020/12/26 11:07:30;;;;;;;2.30;2.10;;;18.20;26.90;;;;;;5096814;28;20157;-61
2020/12/26 11:09:56;;;;;;;2.37;2.13;;;18.30;26.80;;;;;;5115308;28;20157;-61
2020/12/26 11:12:22;;;;;;;2.33;2.10;;;18.30;26.70;;;;;;5114773;28;20856;-61
2020/12/26 11:14:47;;;;;;;2.97;1.97;;;18.30;26.60;;;;;;5114118;28;20164;-61
2020/12/26 11:17:13;;;;;;;2.10;2.00;;;18.30;26.50;;;;;;5114888;28;20207;-62
2020/12/26 11:19:40;;;;;;;2.43;2.27;;;18.30;26.50;;;;;;5114967;28;20185;-61
2020/12/26 11:22:05;;;;;;;2.47;2.10;;;18.40;26.50;;;;;;5095909;28;20415;-61
2020/12/26 11:24:31;;;;;;;4.20;2.40;;;18.40;26.50;;;;;;5114664;28;20172;-62
2020/12/26 11:26:57;;;;;;;3.43;3.00;;;18.40;26.40;;;;;;5096425;28;20173;-61
2020/12/26 11:29:22;;;;;;;2.53;2.23;;;18.40;26.40;;;;;;5114903;28;20547;-61
2020/12/26 11:31:49;;;;;;;2.57;2.37;;;18.40;26.40;;;;;;5114576;28;20242;-61
2020/12/26 11:34:14;;;;;;;2.47;2.25;;;18.40;26.30;;;;;;5114479;28;20154;-61
2020/12/26 11:36:43;;;;;;;3.67;2.93;;;18.40;26.20;;;;;;5079547;28;20612;-61
2020/12/26 11:39:12;;;;;;;3.30;3.00;;;18.50;26.20;;;;;;5114072;28;20515;-61
2020/12/26 11:41:38;;;;;;;2.80;2.53;;;18.50;26.70;;;;;;5114618;28;20168;-61
2020/12/26 11:44:04;;;;;;;2.67;2.47;;;18.50;26.10;;;;;;5113982;28;20156;-61
2020/12/26 11:46:29;;;;;;;2.80;2.53;;;18.50;26.10;;;;;;5114306;28;20210;-61
2020/12/26 11:48:56;;;;;;;2.77;2.30;;;18.50;26.10;;;;;;5114112;28;20604;-61
2020/12/26 11:51:22;;;;;;;2.53;2.33;;;18.50;26.10;;;;;;5114384;28;20145;-61
2020/12/26 11:53:48;;;;;;;2.65;2.30;;;18.50;26.10;;;;;;5113705;28;20219;-60
2020/12/26 11:56:15;;;;;;;2.73;2.53;;;18.50;26.20;;;;;;5079045;28;20195;-60
2020/12/26 11:58:44;;;;;;;4.70;3.03;;;18.50;26.20;;;;;;5114207;28;20395;-63
2020/12/26 12:01:18;;;;;;;2.83;2.58;;;18.50;26.20;;;;;;5095773;28;20260;-61
2020/12/26 12:03:45;;;;;;;3.50;2.63;;;18.50;26.20;;;;;;5113864;28;20232;-61
2020/12/26 12:06:13;;;;;;;2.67;2.47;;;18.50;26.10;;;;;;5114635;28;20153;-60
2020/12/26 12:08:40;;;;;;;2.42;2.20;;;18.50;26.10;;;;;;5113769;28;20154;-60
2020/12/26 12:11:06;;;;;;;2.42;2.22;;;18.50;26.10;;;;;;5114178;28;20168;-61
2020/12/26 12:13:32;;;;;;;2.90;2.70;;;18.50;26.20;;;;;;5114055;28;20184;-61
2020/12/26 12:15:57;;;;;;;2.87;2.67;;;18.50;26.20;;;;;;5095617;28;20418;-60
2020/12/26 12:18:23;;;;;;;2.50;2.30;;;18.50;26.20;;;;;;5095875;28;20513;-60
2020/12/26 12:20:48;;;;;;;2.70;2.50;;;18.50;26.20;;;;;;5114085;28;20165;-60
2020/12/26 12:23:14;;;;;;;2.13;2.03;;;18.50;26.20;;;;;;5113656;28;20168;-61
2020/12/26 12:25:43;;;;;;;3.43;2.80;;;18.40;26.10;;;;;;5114151;28;20620;-61
2020/12/26 12:28:08;;;;;;;2.65;2.45;;;18.40;26.10;;;;;;5118008;28;20647;-60
2020/12/26 12:30:34;;;;;;;2.70;2.40;;;18.40;26.20;;;;;;5118455;28;20173;-60
2020/12/26 12:33:00;;;;;;;3.00;2.80;;;18.40;26.30;;;;;;5118004;28;20246;-60
2020/12/26 12:35:25;;;;;;;2.30;1.80;;;18.40;26.30;;;;;;5117998;28;20184;-60
2020/12/26 12:37:51;;;;;;;2.77;2.47;;;18.40;26.30;;;;;;5117708;28;20210;-60
2020/12/26 12:40:18;;;;;;;2.63;2.43;;;18.40;26.30;;;;;;5118285;28;20161;-60
2020/12/26 12:42:45;;;;;;;3.20;2.90;;;18.40;26.30;;;;;;5117798;28;20248;-60
2020/12/26 12:45:13;;;;;;;2.50;2.33;;;18.40;26.30;;;;;;5117824;28;20157;-61
2020/12/26 12:47:42;;;;;;;2.72;2.45;;;18.40;26.30;;;;;;5117765;28;20184;-61
2020/12/26 12:50:08;;;;;;;3.00;2.72;;;18.40;26.30;;;;;;5100006;28;20157;-61
2020/12/26 12:52:35;;;;;;;3.47;2.67;;;18.40;26.30;;;;;;5117274;28;20192;-61
2020/12/26 12:55:01;;;;;;;2.60;2.40;;;18.40;26.20;;;;;;5117569;28;20262;-61